sensor_id;sensor_type;location;lat;lon;timestamp;temperature;humidity
30037;DHT22;36325;51.512;-0.382;2022-09-17T00:01:28;8.40;99.90
30037;DHT22;36325;51.512;-0.382;2022-09-17T00:03:58;8.40;99.90
30037;DHT22;36325;51.512;-0.382;2022-09-17T00:06:32;8.40;99.90
30037;DHT22;36325;51.512;-0.382;2022-09-17T00:09:01;8.30;99.90
30037;DHT22;36325;51.512;-0.382;2022-09-17T00:11:30;8.30;99.90
30037;DHT22;36325;51.512;-0.382;2022-09-17T00:13:59;8.30;99.90
30037;DHT22;36325;51.512;-0.382;2022-09-17T00:16:29;8.40;99.90
30037;DHT22;36325;51.512;-0.382;2022-09-17T00:18:58;8.30;99.90
30037;DHT22;36325;51.512;-0.382;2022-09-17T00:21:27;8.20;99.90
30037;DHT22;36325;51.512;-0.382;2022-09-17T00:23:56;8.20;99.90
30037;DHT22;36325;51.512;-0.382;2022-09-17T00:26:27;8.20;99.90
30037;DHT22;36325;51.512;-0.382;2022-09-17T00:28:55;8.10;99.90
30037;DHT22;36325;51.512;-0.382;2022-09-17T00:31:24;9.50;99.90
30037;DHT22;36325;51.512;-0.382;2022-09-17T00:33:52;8.10;99.90
30037;DHT22;36325;51.512;-0.382;2022-09-17T00:36:20;8.10;99.90
30037;DHT22;36325;51.512;-0.382;2022-09-17T00:38:52;8.10;99.90
30037;DHT22;36325;51.512;-0.382;2022-09-17T00:41:20;8.00;99.90
30037;DHT22;36325;51.512;-0.382;2022-09-17T00:43:53;8.00;99.90
30037;DHT22;36325;51.512;-0.382;2022-09-17T00:49:02;7.90;99.90
30037;DHT22;36325;51.512;-0.382;2022-09-17T00:51:41;7.90;99.90
30037;DHT22;36325;51.512;-0.382;2022-09-17T00:54:11;8.00;99.90
30037;DHT22;36325;51.512;-0.382;2022-09-17T00:56:40;7.90;99.90
30037;DHT22;36325;51.512;-0.382;2022-09-17T00:59:09;7.90;99.90
30037;DHT22;36325;51.512;-0.382;2022-09-17T01:04:05;7.90;99.90
30037;DHT22;36325;51.512;-0.382;2022-09-17T01:06:41;7.90;99.90
30037;DHT22;36325;51.512;-0.382;2022-09-17T01:43:25;7.70;99.90
30037;DHT22;36325;51.512;-0.382;2022-09-17T01:46:01;7.70;99.90
30037;DHT22;36325;51.512;-0.382;2022-09-17T01:48:33;7.60;99.90
30037;DHT22;36325;51.512;-0.382;2022-09-17T01:51:10;7.60;99.90
30037;DHT22;36325;51.512;-0.382;2022-09-17T01:53:47;7.60;99.90
30037;DHT22;36325;51.512;-0.382;2022-09-17T01:56:21;7.50;99.90
30037;DHT22;36325;51.512;-0.382;2022-09-17T01:59:06;7.50;99.90
30037;DHT22;36325;51.512;-0.382;2022-09-17T02:01:37;6.40;99.90
30037;DHT22;36325;51.512;-0.382;2022-09-17T02:04:13;7.40;99.90
30037;DHT22;36325;51.512;-0.382;2022-09-17T02:06:46;7.40;99.90
30037;DHT22;36325;51.512;-0.382;2022-09-17T02:09:18;7.40;99.90
30037;DHT22;36325;51.512;-0.382;2022-09-17T02:11:53;7.30;99.90
30037;DHT22;36325;51.512;-0.382;2022-09-17T02:14:32;7.30;99.90
30037;DHT22;36325;51.512;-0.382;2022-09-17T02:20:41;7.20;99.90
30037;DHT22;36325;51.512;-0.382;2022-09-17T02:23:15;7.20;99.90
30037;DHT22;36325;51.512;-0.382;2022-09-17T02:26:03;7.20;99.90
30037;DHT22;36325;51.512;-0.382;2022-09-17T02:28:36;7.10;99.90
30037;DHT22;36325;51.512;-0.382;2022-09-17T02:31:06;7.10;99.90
30037;DHT22;36325;51.512;-0.382;2022-09-17T02:33:34;7.10;99.90
30037;DHT22;36325;51.512;-0.382;2022-09-17T02:36:03;7.10;99.90
30037;DHT22;36325;51.512;-0.382;2022-09-17T02:38:30;7.10;99.90
30037;DHT22;36325;51.512;-0.382;2022-09-17T02:41:21;7.10;99.90
30037;DHT22;36325;51.512;-0.382;2022-09-17T02:52:46;6.90;99.90
30037;DHT22;36325;51.512;-0.382;2022-09-17T02:56:06;6.90;99.90
30037;DHT22;36325;51.512;-0.382;2022-09-17T02:59:00;6.90;99.90
30037;DHT22;36325;51.512;-0.382;2022-09-17T03:01:17;6.90;99.90
30037;DHT22;36325;51.512;-0.382;2022-09-17T03:03:48;6.90;99.90
30037;DHT22;36325;51.512;-0.382;2022-09-17T03:06:17;6.90;99.90
30037;DHT22;36325;51.512;-0.382;2022-09-17T03:08:45;6.80;99.90
30037;DHT22;36325;51.512;-0.382;2022-09-17T03:11:13;6.80;99.90
30037;DHT22;36325;51.512;-0.382;2022-09-17T03:13:41;6.80;99.90
30037;DHT22;36325;51.512;-0.382;2022-09-17T03:16:08;6.80;99.90
30037;DHT22;36325;51.512;-0.382;2022-09-17T03:18:36;6.80;99.90
30037;DHT22;36325;51.512;-0.382;2022-09-17T03:21:03;6.70;99.90
30037;DHT22;36325;51.512;-0.382;2022-09-17T03:23:30;6.70;99.90
30037;DHT22;36325;51.512;-0.382;2022-09-17T03:25:59;6.70;99.90
30037;DHT22;36325;51.512;-0.382;2022-09-17T03:28:26;6.60;99.90
30037;DHT22;36325;51.512;-0.382;2022-09-17T03:30:54;6.60;99.90
30037;DHT22;36325;51.512;-0.382;2022-09-17T03:33:22;6.50;99.90
30037;DHT22;36325;51.512;-0.382;2022-09-17T03:35:50;6.50;99.90
30037;DHT22;36325;51.512;-0.382;2022-09-17T03:38:17;6.50;99.90
30037;DHT22;36325;51.512;-0.382;2022-09-17T03:40:56;6.40;99.90
30037;DHT22;36325;51.512;-0.382;2022-09-17T03:43:24;6.40;99.90
30037;DHT22;36325;51.512;-0.382;2022-09-17T03:45:52;6.40;99.90
30037;DHT22;36325;51.512;-0.382;2022-09-17T03:48:21;6.40;99.90
30037;DHT22;36325;51.512;-0.382;2022-09-17T03:50:49;6.40;99.90
30037;DHT22;36325;51.512;-0.382;2022-09-17T03:53:16;6.40;99.90
30037;DHT22;36325;51.512;-0.382;2022-09-17T03:55:43;6.40;99.90
30037;DHT22;36325;51.512;-0.382;2022-09-17T03:58:10;6.40;99.90
30037;DHT22;36325;51.512;-0.382;2022-09-17T04:00:38;6.40;99.90
30037;DHT22;36325;51.512;-0.382;2022-09-17T04:03:06;6.30;99.90
30037;DHT22;36325;51.512;-0.382;2022-09-17T04:05:35;6.40;99.90
30037;DHT22;36325;51.512;-0.382;2022-09-17T04:08:02;6.30;99.90
30037;DHT22;36325;51.512;-0.382;2022-09-17T04:10:30;6.30;99.90
30037;DHT22;36325;51.512;-0.382;2022-09-17T04:12:57;6.30;99.90
30037;DHT22;36325;51.512;-0.382;2022-09-17T04:15:24;6.20;99.90
30037;DHT22;36325;51.512;-0.382;2022-09-17T04:17:58;6.20;99.90
30037;DHT22;36325;51.512;-0.382;2022-09-17T04:20:34;6.20;99.90
30037;DHT22;36325;51.512;-0.382;2022-09-17T04:23:15;6.20;99.90
30037;DHT22;36325;51.512;-0.382;2022-09-17T04:25:50;6.10;99.90
30037;DHT22;36325;51.512;-0.382;2022-09-17T04:28:22;6.10;99.90
30037;DHT22;36325;51.512;-0.382;2022-09-17T04:30:49;6.10;99.90
30037;DHT22;36325;51.512;-0.382;2022-09-17T04:33:17;6.10;99.90
30037;DHT22;36325;51.512;-0.382;2022-09-17T04:38:14;6.00;99.90
30037;DHT22;36325;51.512;-0.382;2022-09-17T04:40:44;6.00;99.90
30037;DHT22;36325;51.512;-0.382;2022-09-17T04:43:13;6.00;99.90
30037;DHT22;36325;51.512;-0.382;2022-09-17T04:45:40;6.00;99.90
30037;DHT22;36325;51.512;-0.382;2022-09-17T04:48:07;6.00;99.90
30037;DHT22;36325;51.512;-0.382;2022-09-17T04:50:34;5.90;99.90
30037;DHT22;36325;51.512;-0.382;2022-09-17T04:53:02;5.90;99.90
30037;DHT22;36325;51.512;-0.382;2022-09-17T04:55:29;5.90;99.90
30037;DHT22;36325;51.512;-0.382;2022-09-17T04:57:57;6.00;99.90
30037;DHT22;36325;51.512;-0.382;2022-09-17T05:00:24;5.90;99.90
30037;DHT22;36325;51.512;-0.382;2022-09-17T05:02:53;6.00;99.90
30037;DHT22;36325;51.512;-0.382;2022-09-17T05:05:22;6.00;99.90
30037;DHT22;36325;51.512;-0.382;2022-09-17T05:07:49;6.00;99.90
30037;DHT22;36325;51.512;-0.382;2022-09-17T05:10:18;6.00;99.90
30037;DHT22;36325;51.512;-0.382;2022-09-17T05:12:54;6.10;99.90
30037;DHT22;36325;51.512;-0.382;2022-09-17T05:15:23;6.10;99.90
30037;DHT22;36325;51.512;-0.382;2022-09-17T05:17:51;6.20;99.90
30037;DHT22;36325;51.512;-0.382;2022-09-17T05:20:19;6.10;99.90
30037;DHT22;36325;51.512;-0.382;2022-09-17T05:22:48;6.20;99.90
30037;DHT22;36325;51.512;-0.382;2022-09-17T05:25:18;6.20;99.90
30037;DHT22;36325;51.512;-0.382;2022-09-17T05:27:45;6.30;99.90
30037;DHT22;36325;51.512;-0.382;2022-09-17T05:30:13;6.30;99.90
30037;DHT22;36325;51.512;-0.382;2022-09-17T05:32:40;6.40;99.90
30037;DHT22;36325;51.512;-0.382;2022-09-17T05:35:08;6.50;99.90
30037;DHT22;36325;51.512;-0.382;2022-09-17T05:37:36;6.50;99.90
30037;DHT22;36325;51.512;-0.382;2022-09-17T05:40:05;6.60;99.90
30037;DHT22;36325;51.512;-0.382;2022-09-17T05:42:33;6.60;99.90
30037;DHT22;36325;51.512;-0.382;2022-09-17T05:45:01;6.50;99.90
30037;DHT22;36325;51.512;-0.382;2022-09-17T05:47:28;6.60;99.90
30037;DHT22;36325;51.512;-0.382;2022-09-17T05:49:55;6.60;99.90
30037;DHT22;36325;51.512;-0.382;2022-09-17T05:52:26;6.60;99.90
30037;DHT22;36325;51.512;-0.382;2022-09-17T05:54:54;6.70;99.90
30037;DHT22;36325;51.512;-0.382;2022-09-17T05:57:22;6.70;99.90
30037;DHT22;36325;51.512;-0.382;2022-09-17T05:59:49;6.70;99.90
30037;DHT22;36325;51.512;-0.382;2022-09-17T06:02:17;6.70;99.90
30037;DHT22;36325;51.512;-0.382;2022-09-17T06:04:45;6.70;99.90
30037;DHT22;36325;51.512;-0.382;2022-09-17T06:07:13;6.80;99.90
30037;DHT22;36325;51.512;-0.382;2022-09-17T06:09:40;6.80;99.90
30037;DHT22;36325;51.512;-0.382;2022-09-17T06:12:07;6.80;99.90
30037;DHT22;36325;51.512;-0.382;2022-09-17T06:14:35;6.90;99.90
30037;DHT22;36325;51.512;-0.382;2022-09-17T06:17:02;6.90;99.90
30037;DHT22;36325;51.512;-0.382;2022-09-17T06:19:30;7.00;99.90
30037;DHT22;36325;51.512;-0.382;2022-09-17T06:21:58;7.00;99.90
30037;DHT22;36325;51.512;-0.382;2022-09-17T06:24:25;7.00;99.90
30037;DHT22;36325;51.512;-0.382;2022-09-17T06:26:52;7.10;99.90
30037;DHT22;36325;51.512;-0.382;2022-09-17T06:29:20;7.10;99.90
30037;DHT22;36325;51.512;-0.382;2022-09-17T06:31:50;7.30;99.90
30037;DHT22;36325;51.512;-0.382;2022-09-17T06:34:18;7.30;99.90
30037;DHT22;36325;51.512;-0.382;2022-09-17T06:36:47;7.30;99.90
30037;DHT22;36325;51.512;-0.382;2022-09-17T06:39:14;7.40;99.90
30037;DHT22;36325;51.512;-0.382;2022-09-17T06:41:42;7.40;99.90
30037;DHT22;36325;51.512;-0.382;2022-09-17T06:44:09;7.50;99.90
30037;DHT22;36325;51.512;-0.382;2022-09-17T06:46:36;7.60;99.90
30037;DHT22;36325;51.512;-0.382;2022-09-17T06:49:04;7.80;99.90
30037;DHT22;36325;51.512;-0.382;2022-09-17T06:51:31;5.60;99.90
30037;DHT22;36325;51.512;-0.382;2022-09-17T06:53:59;7.90;99.90
30037;DHT22;36325;51.512;-0.382;2022-09-17T06:56:26;8.00;99.90
30037;DHT22;36325;51.512;-0.382;2022-09-17T06:58:53;8.40;99.90
30037;DHT22;36325;51.512;-0.382;2022-09-17T07:01:21;8.40;99.90
30037;DHT22;36325;51.512;-0.382;2022-09-17T07:03:48;8.80;99.90
30037;DHT22;36325;51.512;-0.382;2022-09-17T07:06:15;8.80;99.90
30037;DHT22;36325;51.512;-0.382;2022-09-17T07:08:43;9.00;99.90
30037;DHT22;36325;51.512;-0.382;2022-09-17T07:13:38;9.50;99.90
30037;DHT22;36325;51.512;-0.382;2022-09-17T07:16:05;9.80;99.90
30037;DHT22;36325;51.512;-0.382;2022-09-17T07:18:32;10.00;99.90
30037;DHT22;36325;51.512;-0.382;2022-09-17T07:21:02;10.40;99.90
30037;DHT22;36325;51.512;-0.382;2022-09-17T07:23:32;10.60;99.90
30037;DHT22;36325;51.512;-0.382;2022-09-17T07:26:02;10.90;99.90
30037;DHT22;36325;51.512;-0.382;2022-09-17T07:28:30;11.20;99.90
30037;DHT22;36325;51.512;-0.382;2022-09-17T07:30:57;11.50;99.90
30037;DHT22;36325;51.512;-0.382;2022-09-17T07:33:28;11.70;99.90
30037;DHT22;36325;51.512;-0.382;2022-09-17T07:36:01;12.00;99.90
30037;DHT22;36325;51.512;-0.382;2022-09-17T07:40:59;12.50;99.90
30037;DHT22;36325;51.512;-0.382;2022-09-17T07:43:28;12.80;99.90
30037;DHT22;36325;51.512;-0.382;2022-09-17T07:45:57;13.10;99.90
30037;DHT22;36325;51.512;-0.382;2022-09-17T07:48:25;13.30;99.90
30037;DHT22;36325;51.512;-0.382;2022-09-17T07:50:53;13.60;99.90
30037;DHT22;36325;51.512;-0.382;2022-09-17T07:53:21;13.80;99.90
30037;DHT22;36325;51.512;-0.382;2022-09-17T07:55:59;14.10;99.90
30037;DHT22;36325;51.512;-0.382;2022-09-17T07:58:32;14.30;99.90
30037;DHT22;36325;51.512;-0.382;2022-09-17T08:01:04;14.40;99.90
30037;DHT22;36325;51.512;-0.382;2022-09-17T08:03:34;14.70;99.90
30037;DHT22;36325;51.512;-0.382;2022-09-17T08:06:09;14.80;99.90
30037;DHT22;36325;51.512;-0.382;2022-09-17T08:08:38;15.00;99.90
30037;DHT22;36325;51.512;-0.382;2022-09-17T08:11:08;15.20;99.90
30037;DHT22;36325;51.512;-0.382;2022-09-17T08:16:06;15.60;99.90
30037;DHT22;36325;51.512;-0.382;2022-09-17T08:18:34;15.80;99.90
30037;DHT22;36325;51.512;-0.382;2022-09-17T08:21:05;16.00;99.90
30037;DHT22;36325;51.512;-0.382;2022-09-17T08:23:35;16.20;99.90
30037;DHT22;36325;51.512;-0.382;2022-09-17T08:26:03;16.30;99.90
30037;DHT22;36325;51.512;-0.382;2022-09-17T08:28:30;16.40;99.90
30037;DHT22;36325;51.512;-0.382;2022-09-17T08:31:05;16.60;99.90
30037;DHT22;36325;51.512;-0.382;2022-09-17T08:33:38;16.80;99.90
30037;DHT22;36325;51.512;-0.382;2022-09-17T08:36:07;17.00;99.90
30037;DHT22;36325;51.512;-0.382;2022-09-17T08:38:37;17.30;99.90
30037;DHT22;36325;51.512;-0.382;2022-09-17T08:47:03;17.70;99.90
30037;DHT22;36325;51.512;-0.382;2022-09-17T08:49:39;17.70;99.90
30037;DHT22;36325;51.512;-0.382;2022-09-17T08:55:19;17.90;99.90
30037;DHT22;36325;51.512;-0.382;2022-09-17T09:03:43;18.50;99.90
30037;DHT22;36325;51.512;-0.382;2022-09-17T09:06:14;18.70;99.90
30037;DHT22;36325;51.512;-0.382;2022-09-17T09:08:47;19.00;99.90
30037;DHT22;36325;51.512;-0.382;2022-09-17T09:11:25;19.10;99.90
30037;DHT22;36325;51.512;-0.382;2022-09-17T09:14:03;19.20;99.90
30037;DHT22;36325;51.512;-0.382;2022-09-17T09:16:40;19.20;99.90
30037;DHT22;36325;51.512;-0.382;2022-09-17T09:19:26;19.10;99.90
30037;DHT22;36325;51.512;-0.382;2022-09-17T09:25:20;19.60;99.90
30037;DHT22;36325;51.512;-0.382;2022-09-17T09:33:39;19.90;99.90
30037;DHT22;36325;51.512;-0.382;2022-09-17T09:36:15;20.00;99.90
30037;DHT22;36325;51.512;-0.382;2022-09-17T09:38:55;20.00;99.90
30037;DHT22;36325;51.512;-0.382;2022-09-17T09:44:13;20.40;99.90
30037;DHT22;36325;51.512;-0.382;2022-09-17T09:58:21;21.50;96.10
30037;DHT22;36325;51.512;-0.382;2022-09-17T10:00:51;21.50;95.70
30037;DHT22;36325;51.512;-0.382;2022-09-17T10:03:23;21.60;95.10
30037;DHT22;36325;51.512;-0.382;2022-09-17T10:05:55;21.80;94.50
30037;DHT22;36325;51.512;-0.382;2022-09-17T10:08:25;21.90;94.00
30037;DHT22;36325;51.512;-0.382;2022-09-17T10:10:59;22.10;93.60
30037;DHT22;36325;51.512;-0.382;2022-09-17T10:13:30;22.40;93.20
30037;DHT22;36325;51.512;-0.382;2022-09-17T10:16:21;22.40;92.60
30037;DHT22;36325;51.512;-0.382;2022-09-17T10:19:11;22.40;92.00
30037;DHT22;36325;51.512;-0.382;2022-09-17T10:21:40;22.40;91.20
30037;DHT22;36325;51.512;-0.382;2022-09-17T10:24:29;22.10;90.70
30037;DHT22;36325;51.512;-0.382;2022-09-17T10:27:05;22.60;89.00
30037;DHT22;36325;51.512;-0.382;2022-09-17T10:29:42;22.70;89.60
30037;DHT22;36325;51.512;-0.382;2022-09-17T10:32:18;23.40;88.70
30037;DHT22;36325;51.512;-0.382;2022-09-17T10:35:25;23.00;87.10
30037;DHT22;36325;51.512;-0.382;2022-09-17T10:37:54;23.00;86.40
30037;DHT22;36325;51.512;-0.382;2022-09-17T10:40:27;23.10;86.40
30037;DHT22;36325;51.512;-0.382;2022-09-17T10:43:21;22.90;85.80
30037;DHT22;36325;51.512;-0.382;2022-09-17T10:45:57;22.90;85.70
30037;DHT22;36325;51.512;-0.382;2022-09-17T10:48:29;23.30;85.60
30037;DHT22;36325;51.512;-0.382;2022-09-17T10:50:59;23.50;83.90
30037;DHT22;36325;51.512;-0.382;2022-09-17T10:53:29;23.60;83.60
30037;DHT22;36325;51.512;-0.382;2022-09-17T10:56:17;23.60;83.40
30037;DHT22;36325;51.512;-0.382;2022-09-17T11:04:28;23.90;80.90
30037;DHT22;36325;51.512;-0.382;2022-09-17T11:07:17;24.50;79.90
30037;DHT22;36325;51.512;-0.382;2022-09-17T11:15:51;25.30;77.10
30037;DHT22;36325;51.512;-0.382;2022-09-17T11:18:41;25.90;76.20
30037;DHT22;36325;51.512;-0.382;2022-09-17T11:26:46;25.50;75.00
30037;DHT22;36325;51.512;-0.382;2022-09-17T11:35:28;26.70;68.30
30037;DHT22;36325;51.512;-0.382;2022-09-17T11:41:25;27.60;67.40
30037;DHT22;36325;51.512;-0.382;2022-09-17T11:44:20;28.60;66.00
30037;DHT22;36325;51.512;-0.382;2022-09-17T11:46:55;29.20;64.00
30037;DHT22;36325;51.512;-0.382;2022-09-17T11:49:28;29.40;62.40
30037;DHT22;36325;51.512;-0.382;2022-09-17T11:52:19;29.70;61.70
30037;DHT22;36325;51.512;-0.382;2022-09-17T11:55:10;30.10;60.00
30037;DHT22;36325;51.512;-0.382;2022-09-17T11:57:48;30.50;57.50
30037;DHT22;36325;51.512;-0.382;2022-09-17T12:00:19;30.70;57.70
30037;DHT22;36325;51.512;-0.382;2022-09-17T12:08:09;31.80;55.30
30037;DHT22;36325;51.512;-0.382;2022-09-17T12:13:21;32.20;54.50
30037;DHT22;36325;51.512;-0.382;2022-09-17T12:15:59;32.00;54.40
30037;DHT22;36325;51.512;-0.382;2022-09-17T12:21:06;32.30;52.70
30037;DHT22;36325;51.512;-0.382;2022-09-17T12:23:42;31.80;52.40
30037;DHT22;36325;51.512;-0.382;2022-09-17T12:35:22;33.10;50.00
30037;DHT22;36325;51.512;-0.382;2022-09-17T12:50:18;34.20;46.50
30037;DHT22;36325;51.512;-0.382;2022-09-17T12:56:12;34.40;46.10
30037;DHT22;36325;51.512;-0.382;2022-09-17T13:07:44;34.60;45.10
30037;DHT22;36325;51.512;-0.382;2022-09-17T13:10:40;35.00;45.30
30037;DHT22;36325;51.512;-0.382;2022-09-17T13:15:56;35.30;43.90
30037;DHT22;36325;51.512;-0.382;2022-09-17T13:21:32;34.50;43.50
30037;DHT22;36325;51.512;-0.382;2022-09-17T13:24:17;35.00;43.60
30037;DHT22;36325;51.512;-0.382;2022-09-17T13:26:45;35.60;43.00
30037;DHT22;36325;51.512;-0.382;2022-09-17T13:37:44;36.00;42.40
30037;DHT22;36325;51.512;-0.382;2022-09-17T13:40:27;36.60;42.50
30037;DHT22;36325;51.512;-0.382;2022-09-17T13:42:57;37.20;41.40
30037;DHT22;36325;51.512;-0.382;2022-09-17T13:45:25;37.20;41.00
30037;DHT22;36325;51.512;-0.382;2022-09-17T13:47:55;37.20;40.70
30037;DHT22;36325;51.512;-0.382;2022-09-17T13:50:32;37.00;40.90
30037;DHT22;36325;51.512;-0.382;2022-09-17T13:55:52;36.40;39.30
30037;DHT22;36325;51.512;-0.382;2022-09-17T13:58:21;36.10;39.70
30037;DHT22;36325;51.512;-0.382;2022-09-17T14:19:27;32.50;40.70
30037;DHT22;36325;51.512;-0.382;2022-09-17T14:21:57;32.60;40.80
30037;DHT22;36325;51.512;-0.382;2022-09-17T14:24:33;33.00;41.00
30037;DHT22;36325;51.512;-0.382;2022-09-17T14:32:16;34.20;40.60
30037;DHT22;36325;51.512;-0.382;2022-09-17T14:34:48;34.70;40.80
30037;DHT22;36325;51.512;-0.382;2022-09-17T14:37:18;35.00;39.80
30037;DHT22;36325;51.512;-0.382;2022-09-17T14:39:47;35.40;40.00
30037;DHT22;36325;51.512;-0.382;2022-09-17T14:42:28;35.50;39.20
30037;DHT22;36325;51.512;-0.382;2022-09-17T14:45:01;35.80;38.80
30037;DHT22;36325;51.512;-0.382;2022-09-17T14:47:29;35.70;38.50
30037;DHT22;36325;51.512;-0.382;2022-09-17T14:52:49;35.60;38.30
30037;DHT22;36325;51.512;-0.382;2022-09-17T14:55:27;35.60;38.50
30037;DHT22;36325;51.512;-0.382;2022-09-17T14:57:57;36.10;38.40
30037;DHT22;36325;51.512;-0.382;2022-09-17T15:00:35;36.40;38.20
30037;DHT22;36325;51.512;-0.382;2022-09-17T15:03:04;36.90;38.10
30037;DHT22;36325;51.512;-0.382;2022-09-17T15:05:36;36.90;37.70
30037;DHT22;36325;51.512;-0.382;2022-09-17T15:08:13;36.50;37.00
30037;DHT22;36325;51.512;-0.382;2022-09-17T15:11:14;36.30;37.00
30037;DHT22;36325;51.512;-0.382;2022-09-17T15:13:50;35.80;36.60
30037;DHT22;36325;51.512;-0.382;2022-09-17T15:16:26;35.30;37.10
30037;DHT22;36325;51.512;-0.382;2022-09-17T15:18:58;35.00;37.10
30037;DHT22;36325;51.512;-0.382;2022-09-17T15:21:38;34.80;37.10
30037;DHT22;36325;51.512;-0.382;2022-09-17T15:24:31;34.50;37.20
30037;DHT22;36325;51.512;-0.382;2022-09-17T15:27:13;34.70;37.40
30037;DHT22;36325;51.512;-0.382;2022-09-17T15:29:48;34.50;37.40
30037;DHT22;36325;51.512;-0.382;2022-09-17T15:32:16;34.80;37.40
30037;DHT22;36325;51.512;-0.382;2022-09-17T15:34:44;35.10;37.20
30037;DHT22;36325;51.512;-0.382;2022-09-17T15:37:17;35.20;37.00
30037;DHT22;36325;51.512;-0.382;2022-09-17T15:39:50;35.20;36.70
30037;DHT22;36325;51.512;-0.382;2022-09-17T15:42:29;35.00;36.60
30037;DHT22;36325;51.512;-0.382;2022-09-17T15:45:18;34.70;36.50
30037;DHT22;36325;51.512;-0.382;2022-09-17T15:47:55;34.40;36.70
30037;DHT22;36325;51.512;-0.382;2022-09-17T15:50:27;34.10;36.90
30037;DHT22;36325;51.512;-0.382;2022-09-17T15:55:38;33.30;37.40
30037;DHT22;36325;51.512;-0.382;2022-09-17T15:58:26;33.10;37.50
30037;DHT22;36325;51.512;-0.382;2022-09-17T16:08:56;32.30;37.90
30037;DHT22;36325;51.512;-0.382;2022-09-17T16:11:25;32.20;38.40
30037;DHT22;36325;51.512;-0.382;2022-09-17T16:13:55;32.30;38.30
30037;DHT22;36325;51.512;-0.382;2022-09-17T16:16:34;32.00;38.30
30037;DHT22;36325;51.512;-0.382;2022-09-17T16:19:03;31.50;38.20
30037;DHT22;36325;51.512;-0.382;2022-09-17T16:21:31;31.10;38.30
30037;DHT22;36325;51.512;-0.382;2022-09-17T16:23:59;31.10;38.60
30037;DHT22;36325;51.512;-0.382;2022-09-17T16:26:31;30.90;38.60
30037;DHT22;36325;51.512;-0.382;2022-09-17T16:29:07;30.60;39.00
30037;DHT22;36325;51.512;-0.382;2022-09-17T16:31:37;30.10;39.20
30037;DHT22;36325;51.512;-0.382;2022-09-17T16:34:04;29.40;39.80
30037;DHT22;36325;51.512;-0.382;2022-09-17T16:36:32;28.80;40.10
30037;DHT22;36325;51.512;-0.382;2022-09-17T16:38:59;28.80;40.40
30037;DHT22;36325;51.512;-0.382;2022-09-17T16:41:27;28.70;40.30
30037;DHT22;36325;51.512;-0.382;2022-09-17T16:43:55;28.80;40.50
30037;DHT22;36325;51.512;-0.382;2022-09-17T16:46:23;28.80;40.70
30037;DHT22;36325;51.512;-0.382;2022-09-17T16:48:50;28.60;40.90
30037;DHT22;36325;51.512;-0.382;2022-09-17T16:51:18;28.50;41.00
30037;DHT22;36325;51.512;-0.382;2022-09-17T16:53:46;28.40;41.30
30037;DHT22;36325;51.512;-0.382;2022-09-17T16:56:14;28.10;41.70
30037;DHT22;36325;51.512;-0.382;2022-09-17T16:58:42;27.80;42.00
30037;DHT22;36325;51.512;-0.382;2022-09-17T17:01:11;27.60;42.30
30037;DHT22;36325;51.512;-0.382;2022-09-17T17:03:40;27.20;42.30
30037;DHT22;36325;51.512;-0.382;2022-09-17T17:06:18;26.50;42.80
30037;DHT22;36325;51.512;-0.382;2022-09-17T17:08:46;27.10;44.40
30037;DHT22;36325;51.512;-0.382;2022-09-17T17:11:13;25.20;44.00
30037;DHT22;36325;51.512;-0.382;2022-09-17T17:13:41;24.70;44.70
30037;DHT22;36325;51.512;-0.382;2022-09-17T17:16:12;24.50;45.20
30037;DHT22;36325;51.512;-0.382;2022-09-17T17:18:44;24.20;45.60
30037;DHT22;36325;51.512;-0.382;2022-09-17T17:21:12;23.80;46.30
30037;DHT22;36325;51.512;-0.382;2022-09-17T17:23:40;23.50;46.90
30037;DHT22;36325;51.512;-0.382;2022-09-17T17:26:14;23.40;47.40
30037;DHT22;36325;51.512;-0.382;2022-09-17T17:28:42;23.40;47.60
30037;DHT22;36325;51.512;-0.382;2022-09-17T17:31:09;23.40;47.60
30037;DHT22;36325;51.512;-0.382;2022-09-17T17:33:37;23.30;47.80
30037;DHT22;36325;51.512;-0.382;2022-09-17T17:36:05;23.10;48.10
30037;DHT22;36325;51.512;-0.382;2022-09-17T17:38:34;22.70;48.60
30037;DHT22;36325;51.512;-0.382;2022-09-17T17:41:11;22.40;49.00
30037;DHT22;36325;51.512;-0.382;2022-09-17T17:43:39;22.30;49.60
30037;DHT22;36325;51.512;-0.382;2022-09-17T17:46:08;22.00;49.80
30037;DHT22;36325;51.512;-0.382;2022-09-17T17:48:36;21.60;50.10
30037;DHT22;36325;51.512;-0.382;2022-09-17T17:51:08;21.30;50.80
30037;DHT22;36325;51.512;-0.382;2022-09-17T17:53:36;20.90;51.50
30037;DHT22;36325;51.512;-0.382;2022-09-17T17:56:05;20.60;52.10
30037;DHT22;36325;51.512;-0.382;2022-09-17T17:58:34;20.10;53.00
30037;DHT22;36325;51.512;-0.382;2022-09-17T18:01:22;19.80;53.50
30037;DHT22;36325;51.512;-0.382;2022-09-17T18:03:59;19.40;54.70
30037;DHT22;36325;51.512;-0.382;2022-09-17T18:06:27;19.00;55.10
30037;DHT22;36325;51.512;-0.382;2022-09-17T18:08:55;18.70;55.80
30037;DHT22;36325;51.512;-0.382;2022-09-17T18:11:23;18.30;56.30
30037;DHT22;36325;51.512;-0.382;2022-09-17T18:13:52;18.10;57.10
30037;DHT22;36325;51.512;-0.382;2022-09-17T18:16:20;17.80;57.90
30037;DHT22;36325;51.512;-0.382;2022-09-17T18:18:48;17.30;59.30
30037;DHT22;36325;51.512;-0.382;2022-09-17T18:21:18;17.30;59.50
30037;DHT22;36325;51.512;-0.382;2022-09-17T18:23:47;17.10;60.30
30037;DHT22;36325;51.512;-0.382;2022-09-17T18:26:17;16.90;61.20
30037;DHT22;36325;51.512;-0.382;2022-09-17T18:28:48;16.50;62.40
30037;DHT22;36325;51.512;-0.382;2022-09-17T18:33:47;16.30;63.60
30037;DHT22;36325;51.512;-0.382;2022-09-17T18:36:14;16.20;64.60
30037;DHT22;36325;51.512;-0.382;2022-09-17T18:38:42;16.00;65.40
30037;DHT22;36325;51.512;-0.382;2022-09-17T18:41:11;15.90;66.50
30037;DHT22;36325;51.512;-0.382;2022-09-17T18:43:39;15.80;67.20
30037;DHT22;36325;51.512;-0.382;2022-09-17T18:46:06;14.10;67.00
30037;DHT22;36325;51.512;-0.382;2022-09-17T18:48:34;15.50;69.00
30037;DHT22;36325;51.512;-0.382;2022-09-17T18:51:04;15.50;69.60
30037;DHT22;36325;51.512;-0.382;2022-09-17T18:53:34;15.30;70.60
30037;DHT22;36325;51.512;-0.382;2022-09-17T18:56:06;15.30;71.30
30037;DHT22;36325;51.512;-0.382;2022-09-17T18:58:34;15.10;72.80
30037;DHT22;36325;51.512;-0.382;2022-09-17T19:01:06;15.10;75.20
30037;DHT22;36325;51.512;-0.382;2022-09-17T19:03:34;14.90;76.60
30037;DHT22;36325;51.512;-0.382;2022-09-17T19:06:03;14.80;77.00
30037;DHT22;36325;51.512;-0.382;2022-09-17T19:08:31;14.70;77.50
30037;DHT22;36325;51.512;-0.382;2022-09-17T19:10:58;14.70;78.50
30037;DHT22;36325;51.512;-0.382;2022-09-17T19:13:32;14.60;79.10
30037;DHT22;36325;51.512;-0.382;2022-09-17T19:16:02;14.50;79.60
30037;DHT22;36325;51.512;-0.382;2022-09-17T19:18:30;14.50;80.50
30037;DHT22;36325;51.512;-0.382;2022-09-17T19:21:06;14.30;81.30
30037;DHT22;36325;51.512;-0.382;2022-09-17T19:23:40;14.30;81.70
30037;DHT22;36325;51.512;-0.382;2022-09-17T19:26:10;14.30;82.30
30037;DHT22;36325;51.512;-0.382;2022-09-17T19:28:38;14.20;83.00
30037;DHT22;36325;51.512;-0.382;2022-09-17T19:31:08;14.20;83.10
30037;DHT22;36325;51.512;-0.382;2022-09-17T19:33:36;14.10;84.30
30037;DHT22;36325;51.512;-0.382;2022-09-17T19:36:09;14.10;85.10
30037;DHT22;36325;51.512;-0.382;2022-09-17T19:38:37;14.00;86.20